sensor_id;sensor_type;location;lat;lon;timestamp;P1;durP1;ratioP1;P2;durP2;ratioP2
45762;SDS011;37512;52.408;13.356;2024-02-15T00:02:35;15.20;;;8.75;;
45762;SDS011;37512;52.408;13.356;2024-02-15T00:06:36;10.32;;;8.88;;
45762;SDS011;37512;52.408;13.356;2024-02-15T00:10:38;13.90;;;9.77;;
45762;SDS011;37512;52.408;13.356;2024-02-15T00:14:40;12.13;;;9.07;;
45762;SDS011;37512;52.408;13.356;2024-02-15T00:18:41;10.38;;;7.95;;
45762;SDS011;37512;52.408;13.356;2024-02-15T00:22:43;13.02;;;9.27;;
45762;SDS011;37512;52.408;13.356;2024-02-15T00:26:45;14.02;;;9.52;;
45762;SDS011;37512;52.408;13.356;2024-02-15T00:30:46;12.77;;;9.35;;
45762;SDS011;37512;52.408;13.356;2024-02-15T00:34:48;14.82;;;9.30;;
45762;SDS011;37512;52.408;13.356;2024-02-15T00:38:51;7.15;;;5.43;;
45762;SDS011;37512;52.408;13.356;2024-02-15T00:42:53;13.00;;;9.20;;
45762;SDS011;37512;52.408;13.356;2024-02-15T00:46:54;12.13;;;8.93;;
45762;SDS011;37512;52.408;13.356;2024-02-15T00:50:57;14.05;;;9.27;;
45762;SDS011;37512;52.408;13.356;2024-02-15T00:54:59;9.98;;;7.00;;
45762;SDS011;37512;52.408;13.356;2024-02-15T00:59:01;15.05;;;9.38;;
45762;SDS011;37512;52.408;13.356;2024-02-15T01:03:02;16.42;;;9.18;;
45762;SDS011;37512;52.408;13.356;2024-02-15T01:07:04;16.77;;;10.63;;
45762;SDS011;37512;52.408;13.356;2024-02-15T01:11:06;14.80;;;8.30;;
45762;SDS011;37512;52.408;13.356;2024-02-15T01:15:08;13.88;;;10.65;;
45762;SDS011;37512;52.408;13.356;2024-02-15T01:19:10;13.68;;;10.23;;
45762;SDS011;37512;52.408;13.356;2024-02-15T01:23:12;18.88;;;10.82;;
45762;SDS011;37512;52.408;13.356;2024-02-15T01:27:13;19.90;;;11.77;;
45762;SDS011;37512;52.408;13.356;2024-02-15T01:31:15;17.08;;;11.70;;
45762;SDS011;37512;52.408;13.356;2024-02-15T01:35:18;18.85;;;12.77;;
45762;SDS011;37512;52.408;13.356;2024-02-15T01:39:20;18.17;;;12.27;;
45762;SDS011;37512;52.408;13.356;2024-02-15T01:43:21;19.20;;;12.88;;
45762;SDS011;37512;52.408;13.356;2024-02-15T01:47:23;18.17;;;12.93;;
45762;SDS011;37512;52.408;13.356;2024-02-15T01:51:25;19.35;;;12.20;;
45762;SDS011;37512;52.408;13.356;2024-02-15T01:55:28;20.17;;;13.35;;
45762;SDS011;37512;52.408;13.356;2024-02-15T01:59:29;23.17;;;14.13;;
45762;SDS011;37512;52.408;13.356;2024-02-15T02:03:32;21.70;;;14.07;;
45762;SDS011;37512;52.408;13.356;2024-02-15T02:07:34;20.67;;;14.30;;
45762;SDS011;37512;52.408;13.356;2024-02-15T02:11:36;22.08;;;14.38;;
45762;SDS011;37512;52.408;13.356;2024-02-15T02:15:38;22.15;;;14.73;;
45762;SDS011;37512;52.408;13.356;2024-02-15T02:19:41;20.95;;;13.88;;
45762;SDS011;37512;52.408;13.356;2024-02-15T02:23:44;22.63;;;14.60;;
45762;SDS011;37512;52.408;13.356;2024-02-15T02:27:51;20.45;;;13.00;;
45762;SDS011;37512;52.408;13.356;2024-02-15T02:31:53;20.08;;;14.20;;
45762;SDS011;37512;52.408;13.356;2024-02-15T02:35:54;20.77;;;14.27;;
45762;SDS011;37512;52.408;13.356;2024-02-15T02:39:58;20.45;;;14.52;;
45762;SDS011;37512;52.408;13.356;2024-02-15T02:44:00;21.27;;;15.27;;
45762;SDS011;37512;52.408;13.356;2024-02-15T02:48:02;20.42;;;13.90;;
45762;SDS011;37512;52.408;13.356;2024-02-15T02:52:04;25.23;;;15.13;;
45762;SDS011;37512;52.408;13.356;2024-02-15T02:56:05;23.95;;;16.05;;
45762;SDS011;37512;52.408;13.356;2024-02-15T03:00:10;25.45;;;16.13;;
45762;SDS011;37512;52.408;13.356;2024-02-15T03:04:18;23.40;;;15.65;;
45762;SDS011;37512;52.408;13.356;2024-02-15T03:08:19;22.48;;;15.45;;
45762;SDS011;37512;52.408;13.356;2024-02-15T03:12:21;23.38;;;16.90;;
45762;SDS011;37512;52.408;13.356;2024-02-15T03:16:23;23.05;;;15.90;;
45762;SDS011;37512;52.408;13.356;2024-02-15T03:20:26;22.23;;;15.23;;
45762;SDS011;37512;52.408;13.356;2024-02-15T03:24:27;23.92;;;15.40;;
45762;SDS011;37512;52.408;13.356;2024-02-15T03:28:29;24.85;;;15.30;;
45762;SDS011;37512;52.408;13.356;2024-02-15T03:32:31;20.92;;;13.80;;
45762;SDS011;37512;52.408;13.356;2024-02-15T03:36:32;22.83;;;14.50;;
45762;SDS011;37512;52.408;13.356;2024-02-15T03:40:34;20.02;;;13.85;;
45762;SDS011;37512;52.408;13.356;2024-02-15T03:44:36;25.50;;;14.52;;
45762;SDS011;37512;52.408;13.356;2024-02-15T03:48:42;24.13;;;15.60;;
45762;SDS011;37512;52.408;13.356;2024-02-15T03:52:47;22.77;;;13.93;;
45762;SDS011;37512;52.408;13.356;2024-02-15T03:56:50;23.27;;;14.70;;
45762;SDS011;37512;52.408;13.356;2024-02-15T04:00:55;25.73;;;15.60;;
45762;SDS011;37512;52.408;13.356;2024-02-15T04:04:58;24.23;;;15.20;;
45762;SDS011;37512;52.408;13.356;2024-02-15T04:08:59;18.65;;;12.68;;
45762;SDS011;37512;52.408;13.356;2024-02-15T04:13:01;21.40;;;15.05;;
45762;SDS011;37512;52.408;13.356;2024-02-15T04:17:02;21.08;;;13.73;;
45762;SDS011;37512;52.408;13.356;2024-02-15T04:21:04;24.75;;;15.48;;
45762;SDS011;37512;52.408;13.356;2024-02-15T04:25:08;24.35;;;14.93;;
45762;SDS011;37512;52.408;13.356;2024-02-15T04:29:18;26.98;;;16.23;;
45762;SDS011;37512;52.408;13.356;2024-02-15T04:33:21;25.50;;;15.93;;
45762;SDS011;37512;52.408;13.356;2024-02-15T04:37:23;23.45;;;14.82;;
45762;SDS011;37512;52.408;13.356;2024-02-15T04:41:25;22.48;;;14.35;;
45762;SDS011;37512;52.408;13.356;2024-02-15T04:45:26;24.20;;;15.90;;
45762;SDS011;37512;52.408;13.356;2024-02-15T04:49:28;24.02;;;14.77;;
45762;SDS011;37512;52.408;13.356;2024-02-15T04:53:30;25.75;;;15.68;;
45762;SDS011;37512;52.408;13.356;2024-02-15T04:57:32;22.85;;;14.40;;
45762;SDS011;37512;52.408;13.356;2024-02-15T05:01:35;24.27;;;14.52;;
45762;SDS011;37512;52.408;13.356;2024-02-15T05:05:37;23.33;;;15.18;;
45762;SDS011;37512;52.408;13.356;2024-02-15T05:09:40;23.55;;;13.45;;
45762;SDS011;37512;52.408;13.356;2024-02-15T05:13:42;24.05;;;15.65;;
45762;SDS011;37512;52.408;13.356;2024-02-15T05:17:43;22.02;;;14.25;;
45762;SDS011;37512;52.408;13.356;2024-02-15T05:21:45;22.48;;;14.02;;
45762;SDS011;37512;52.408;13.356;2024-02-15T05:25:47;26.02;;;14.52;;
45762;SDS011;37512;52.408;13.356;2024-02-15T05:29:49;26.65;;;14.75;;
45762;SDS011;37512;52.408;13.356;2024-02-15T05:33:53;23.75;;;14.15;;
45762;SDS011;37512;52.408;13.356;2024-02-15T05:37:55;22.52;;;13.63;;
45762;SDS011;37512;52.408;13.356;2024-02-15T05:41:57;20.58;;;12.73;;
45762;SDS011;37512;52.408;13.356;2024-02-15T05:46:02;24.67;;;13.80;;
45762;SDS011;37512;52.408;13.356;2024-02-15T05:50:04;22.05;;;13.90;;
45762;SDS011;37512;52.408;13.356;2024-02-15T05:54:06;21.15;;;12.38;;
45762;SDS011;37512;52.408;13.356;2024-02-15T05:58:08;18.48;;;12.48;;
45762;SDS011;37512;52.408;13.356;2024-02-15T06:02:11;23.73;;;13.40;;
45762;SDS011;37512;52.408;13.356;2024-02-15T06:06:13;21.95;;;13.27;;
45762;SDS011;37512;52.408;13.356;2024-02-15T06:10:15;22.58;;;13.57;;
45762;SDS011;37512;52.408;13.356;2024-02-15T06:14:17;22.92;;;13.55;;
45762;SDS011;37512;52.408;13.356;2024-02-15T06:18:19;22.33;;;13.43;;
45762;SDS011;37512;52.408;13.356;2024-02-15T06:22:22;17.02;;;10.90;;
45762;SDS011;37512;52.408;13.356;2024-02-15T06:26:27;20.05;;;12.25;;
45762;SDS011;37512;52.408;13.356;2024-02-15T06:30:29;19.75;;;12.80;;
45762;SDS011;37512;52.408;13.356;2024-02-15T06:34:49;23.08;;;13.85;;
45762;SDS011;37512;52.408;13.356;2024-02-15T06:43:29;23.70;;;14.05;;
45762;SDS011;37512;52.408;13.356;2024-02-15T06:47:30;28.95;;;14.23;;
45762;SDS011;37512;52.408;13.356;2024-02-15T07:07:38;28.75;;;14.45;;
45762;SDS011;37512;52.408;13.356;2024-02-15T07:11:41;20.15;;;12.35;;
45762;SDS011;37512;52.408;13.356;2024-02-15T07:15:45;23.80;;;14.02;;
45762;SDS011;37512;52.408;13.356;2024-02-15T07:19:47;25.48;;;14.68;;
45762;SDS011;37512;52.408;13.356;2024-02-15T07:23:50;22.83;;;14.05;;
45762;SDS011;37512;52.408;13.356;2024-02-15T07:27:52;30.70;;;14.88;;
45762;SDS011;37512;52.408;13.356;2024-02-15T07:31:55;21.88;;;14.20;;
45762;SDS011;37512;52.408;13.356;2024-02-15T07:35:57;23.60;;;14.18;;
45762;SDS011;37512;52.408;13.356;2024-02-15T07:39:58;25.45;;;15.27;;
45762;SDS011;37512;52.408;13.356;2024-02-15T07:44:00;21.73;;;14.52;;
45762;SDS011;37512;52.408;13.356;2024-02-15T07:48:03;17.90;;;10.88;;
45762;SDS011;37512;52.408;13.356;2024-02-15T07:52:06;22.60;;;12.48;;
45762;SDS011;37512;52.408;13.356;2024-02-15T07:56:11;20.25;;;11.90;;
45762;SDS011;37512;52.408;13.356;2024-02-15T08:00:14;19.65;;;12.30;;
45762;SDS011;37512;52.408;13.356;2024-02-15T08:04:18;18.67;;;11.90;;
45762;SDS011;37512;52.408;13.356;2024-02-15T08:08:20;20.60;;;12.02;;
45762;SDS011;37512;52.408;13.356;2024-02-15T08:12:22;22.10;;;12.75;;
45762;SDS011;37512;52.408;13.356;2024-02-15T08:16:24;21.77;;;12.65;;
45762;SDS011;37512;52.408;13.356;2024-02-15T08:20:28;21.95;;;12.93;;
45762;SDS011;37512;52.408;13.356;2024-02-15T08:24:32;20.77;;;12.25;;
45762;SDS011;37512;52.408;13.356;2024-02-15T08:28:34;22.58;;;12.88;;
45762;SDS011;37512;52.408;13.356;2024-02-15T08:32:36;22.60;;;13.13;;
45762;SDS011;37512;52.408;13.356;2024-02-15T08:36:39;21.45;;;12.70;;
45762;SDS011;37512;52.408;13.356;2024-02-15T08:40:41;23.80;;;12.43;;
45762;SDS011;37512;52.408;13.356;2024-02-15T08:44:42;19.70;;;12.27;;
45762;SDS011;37512;52.408;13.356;2024-02-15T08:48:45;22.40;;;13.10;;
45762;SDS011;37512;52.408;13.356;2024-02-15T08:52:48;19.77;;;11.43;;
45762;SDS011;37512;52.408;13.356;2024-02-15T08:56:50;22.25;;;12.25;;
45762;SDS011;37512;52.408;13.356;2024-02-15T09:00:54;19.70;;;11.82;;
45762;SDS011;37512;52.408;13.356;2024-02-15T09:04:56;19.00;;;12.05;;
45762;SDS011;37512;52.408;13.356;2024-02-15T09:08:58;23.70;;;12.70;;
45762;SDS011;37512;52.408;13.356;2024-02-15T09:12:59;19.65;;;12.00;;
45762;SDS011;37512;52.408;13.356;2024-02-15T09:17:01;16.85;;;8.63;;
45762;SDS011;37512;52.408;13.356;2024-02-15T09:21:09;18.25;;;10.52;;
45762;SDS011;37512;52.408;13.356;2024-02-15T09:25:10;19.58;;;9.95;;
45762;SDS011;37512;52.408;13.356;2024-02-15T09:29:14;15.63;;;9.93;;
45762;SDS011;37512;52.408;13.356;2024-02-15T09:33:16;14.70;;;8.43;;
45762;SDS011;37512;52.408;13.356;2024-02-15T09:37:19;16.55;;;9.43;;
45762;SDS011;37512;52.408;13.356;2024-02-15T09:41:20;15.68;;;9.63;;
45762;SDS011;37512;52.408;13.356;2024-02-15T09:45:22;14.57;;;10.77;;
45762;SDS011;37512;52.408;13.356;2024-02-15T09:49:26;13.20;;;9.27;;
45762;SDS011;37512;52.408;13.356;2024-02-15T09:53:29;12.40;;;8.52;;
45762;SDS011;37512;52.408;13.356;2024-02-15T09:57:31;12.55;;;8.52;;
45762;SDS011;37512;52.408;13.356;2024-02-15T10:01:38;15.18;;;9.73;;
45762;SDS011;37512;52.408;13.356;2024-02-15T10:05:41;12.50;;;8.75;;
45762;SDS011;37512;52.408;13.356;2024-02-15T10:09:43;14.13;;;7.80;;
45762;SDS011;37512;52.408;13.356;2024-02-15T10:13:45;13.07;;;8.35;;
45762;SDS011;37512;52.408;13.356;2024-02-15T10:17:58;12.60;;;8.20;;
45762;SDS011;37512;52.408;13.356;2024-02-15T10:22:05;10.05;;;7.28;;
45762;SDS011;37512;52.408;13.356;2024-02-15T10:26:20;10.73;;;7.43;;
45762;SDS011;37512;52.408;13.356;2024-02-15T10:30:24;10.75;;;7.85;;
45762;SDS011;37512;52.408;13.356;2024-02-15T10:34:26;15.32;;;7.47;;
45762;SDS011;37512;52.408;13.356;2024-02-15T10:38:32;9.98;;;6.85;;
45762;SDS011;37512;52.408;13.356;2024-02-15T10:42:34;9.73;;;6.35;;
45762;SDS011;37512;52.408;13.356;2024-02-15T10:46:37;11.20;;;5.85;;
45762;SDS011;37512;52.408;13.356;2024-02-15T10:50:40;7.95;;;5.40;;
45762;SDS011;37512;52.408;13.356;2024-02-15T10:54:47;8.00;;;5.75;;
45762;SDS011;37512;52.408;13.356;2024-02-15T10:58:59;5.63;;;4.45;;
45762;SDS011;37512;52.408;13.356;2024-02-15T11:03:32;8.38;;;5.18;;
45762;SDS011;37512;52.408;13.356;2024-02-15T11:07:55;8.65;;;5.57;;
45762;SDS011;37512;52.408;13.356;2024-02-15T11:12:09;8.73;;;5.53;;
45762;SDS011;37512;52.408;13.356;2024-02-15T11:16:38;7.45;;;5.30;;
45762;SDS011;37512;52.408;13.356;2024-02-15T11:21:07;6.97;;;4.88;;
45762;SDS011;37512;52.408;13.356;2024-02-15T11:25:09;8.30;;;5.18;;
45762;SDS011;37512;52.408;13.356;2024-02-15T11:33:54;7.60;;;4.45;;
45762;SDS011;37512;52.408;13.356;2024-02-15T11:37:56;8.73;;;4.47;;
45762;SDS011;37512;52.408;13.356;2024-02-15T11:46:31;8.55;;;4.75;;
45762;SDS011;37512;52.408;13.356;2024-02-15T11:50:35;6.38;;;4.30;;
45762;SDS011;37512;52.408;13.356;2024-02-15T11:54:47;7.07;;;4.60;;
45762;SDS011;37512;52.408;13.356;2024-02-15T11:59:01;6.03;;;4.38;;
45762;SDS011;37512;52.408;13.356;2024-02-15T12:03:08;6.57;;;4.30;;
45762;SDS011;37512;52.408;13.356;2024-02-15T12:07:29;5.53;;;3.80;;
45762;SDS011;37512;52.408;13.356;2024-02-15T12:11:57;5.00;;;3.15;;
45762;SDS011;37512;52.408;13.356;2024-02-15T12:16:18;7.50;;;3.72;;
45762;SDS011;37512;52.408;13.356;2024-02-15T12:24:40;5.13;;;3.50;;
45762;SDS011;37512;52.408;13.356;2024-02-15T12:28:42;5.25;;;3.65;;
45762;SDS011;37512;52.408;13.356;2024-02-15T12:32:48;7.05;;;4.22;;
45762;SDS011;37512;52.408;13.356;2024-02-15T12:37:04;4.03;;;3.40;;
45762;SDS011;37512;52.408;13.356;2024-02-15T12:41:20;4.97;;;3.58;;
45762;SDS011;37512;52.408;13.356;2024-02-15T12:45:24;7.45;;;4.15;;
45762;SDS011;37512;52.408;13.356;2024-02-15T12:49:31;6.88;;;3.72;;
45762;SDS011;37512;52.408;13.356;2024-02-15T12:53:34;6.00;;;3.53;;
45762;SDS011;37512;52.408;13.356;2024-02-15T12:57:35;4.63;;;3.58;;
45762;SDS011;37512;52.408;13.356;2024-02-15T13:01:37;5.28;;;3.60;;
45762;SDS011;37512;52.408;13.356;2024-02-15T13:05:39;5.57;;;3.00;;
45762;SDS011;37512;52.408;13.356;2024-02-15T13:09:42;6.80;;;3.50;;
45762;SDS011;37512;52.408;13.356;2024-02-15T13:13:44;8.00;;;3.70;;
45762;SDS011;37512;52.408;13.356;2024-02-15T13:17:45;5.82;;;3.67;;
45762;SDS011;37512;52.408;13.356;2024-02-15T13:21:55;5.82;;;3.58;;
45762;SDS011;37512;52.408;13.356;2024-02-15T13:25:59;6.05;;;2.83;;
45762;SDS011;37512;52.408;13.356;2024-02-15T13:30:05;20.17;;;12.20;;
45762;SDS011;37512;52.408;13.356;2024-02-15T13:34:10;4.50;;;2.85;;
45762;SDS011;37512;52.408;13.356;2024-02-15T13:38:13;5.03;;;2.50;;
45762;SDS011;37512;52.408;13.356;2024-02-15T13:42:24;6.68;;;3.08;;
45762;SDS011;37512;52.408;13.356;2024-02-15T13:46:26;4.38;;;2.78;;
45762;SDS011;37512;52.408;13.356;2024-02-15T13:50:28;3.90;;;2.47;;
45762;SDS011;37512;52.408;13.356;2024-02-15T13:54:31;3.38;;;2.47;;
45762;SDS011;37512;52.408;13.356;2024-02-15T13:58:33;5.38;;;2.53;;
45762;SDS011;37512;52.408;13.356;2024-02-15T14:02:34;4.75;;;2.58;;
45762;SDS011;37512;52.408;13.356;2024-02-15T14:06:36;4.70;;;2.30;;
45762;SDS011;37512;52.408;13.356;2024-02-15T14:10:38;3.03;;;2.10;;
45762;SDS011;37512;52.408;13.356;2024-02-15T14:14:40;3.47;;;2.38;;
45762;SDS011;37512;52.408;13.356;2024-02-15T14:18:41;6.05;;;2.70;;
45762;SDS011;37512;52.408;13.356;2024-02-15T14:22:46;5.20;;;3.15;;
45762;SDS011;37512;52.408;13.356;2024-02-15T14:26:57;3.35;;;2.55;;
45762;SDS011;37512;52.408;13.356;2024-02-15T14:30:58;8.30;;;3.63;;
45762;SDS011;37512;52.408;13.356;2024-02-15T14:39:21;4.60;;;3.22;;
45762;SDS011;37512;52.408;13.356;2024-02-15T14:43:23;4.25;;;3.33;;
45762;SDS011;37512;52.408;13.356;2024-02-15T14:47:28;7.07;;;3.00;;
45762;SDS011;37512;52.408;13.356;2024-02-15T14:51:31;6.20;;;3.55;;
45762;SDS011;37512;52.408;13.356;2024-02-15T14:55:35;9.52;;;3.90;;
45762;SDS011;37512;52.408;13.356;2024-02-15T14:59:41;8.00;;;3.60;;
45762;SDS011;37512;52.408;13.356;2024-02-15T15:03:52;6.45;;;3.50;;
45762;SDS011;37512;52.408;13.356;2024-02-15T15:07:56;6.03;;;3.05;;
45762;SDS011;37512;52.408;13.356;2024-02-15T15:12:16;8.05;;;3.45;;
45762;SDS011;37512;52.408;13.356;2024-02-15T15:16:36;13.63;;;3.67;;
45762;SDS011;37512;52.408;13.356;2024-02-15T15:20:38;7.70;;;3.30;;
45762;SDS011;37512;52.408;13.356;2024-02-15T15:24:40;5.75;;;3.33;;
45762;SDS011;37512;52.408;13.356;2024-02-15T15:28:42;7.07;;;3.42;;
45762;SDS011;37512;52.408;13.356;2024-02-15T15:32:44;5.10;;;3.20;;
45762;SDS011;37512;52.408;13.356;2024-02-15T15:36:47;4.18;;;2.97;;
45762;SDS011;37512;52.408;13.356;2024-02-15T15:40:49;6.60;;;3.30;;
45762;SDS011;37512;52.408;13.356;2024-02-15T15:44:55;5.68;;;3.20;;
45762;SDS011;37512;52.408;13.356;2024-02-15T15:48:57;6.70;;;3.15;;
45762;SDS011;37512;52.408;13.356;2024-02-15T15:52:58;5.78;;;2.90;;
45762;SDS011;37512;52.408;13.356;2024-02-15T15:57:00;5.00;;;2.72;;
45762;SDS011;37512;52.408;13.356;2024-02-15T16:01:02;4.07;;;3.13;;
45762;SDS011;37512;52.408;13.356;2024-02-15T16:05:05;4.47;;;2.58;;
45762;SDS011;37512;52.408;13.356;2024-02-15T16:09:08;7.13;;;2.58;;
45762;SDS011;37512;52.408;13.356;2024-02-15T16:13:09;3.22;;;2.70;;
45762;SDS011;37512;52.408;13.356;2024-02-15T16:17:11;4.03;;;2.45;;
45762;SDS011;37512;52.408;13.356;2024-02-15T16:21:12;7.35;;;2.88;;
45762;SDS011;37512;52.408;13.356;2024-02-15T16:25:16;4.93;;;2.88;;
45762;SDS011;37512;52.408;13.356;2024-02-15T16:29:18;6.55;;;3.42;;
45762;SDS011;37512;52.408;13.356;2024-02-15T16:33:20;3.15;;;2.40;;
45762;SDS011;37512;52.408;13.356;2024-02-15T16:37:22;6.07;;;2.70;;
45762;SDS011;37512;52.408;13.356;2024-02-15T16:41:24;6.85;;;3.08;;
45762;SDS011;37512;52.408;13.356;2024-02-15T16:45:28;6.97;;;2.78;;
45762;SDS011;37512;52.408;13.356;2024-02-15T16:49:32;9.57;;;2.40;;
45762;SDS011;37512;52.408;13.356;2024-02-15T16:53:33;3.75;;;2.83;;
45762;SDS011;37512;52.408;13.356;2024-02-15T16:57:36;3.83;;;3.00;;
45762;SDS011;37512;52.408;13.356;2024-02-15T17:01:40;5.65;;;3.70;;
45762;SDS011;37512;52.408;13.356;2024-02-15T17:05:43;5.72;;;3.60;;
45762;SDS011;37512;52.408;13.356;2024-02-15T17:09:44;5.78;;;3.58;;
45762;SDS011;37512;52.408;13.356;2024-02-15T17:13:47;7.88;;;3.60;;
45762;SDS011;37512;52.408;13.356;2024-02-15T17:17:50;5.38;;;3.50;;
45762;SDS011;37512;52.408;13.356;2024-02-15T17:21:52;8.05;;;3.20;;
45762;SDS011;37512;52.408;13.356;2024-02-15T17:25:53;9.57;;;4.00;;
45762;SDS011;37512;52.408;13.356;2024-02-15T17:29:55;5.45;;;3.10;;
45762;SDS011;37512;52.408;13.356;2024-02-15T17:33:58;5.53;;;3.38;;
45762;SDS011;37512;52.408;13.356;2024-02-15T17:38:00;5.75;;;4.15;;
45762;SDS011;37512;52.408;13.356;2024-02-15T17:42:02;9.10;;;4.75;;
45762;SDS011;37512;52.408;13.356;2024-02-15T17:46:03;6.00;;;4.03;;
45762;SDS011;37512;52.408;13.356;2024-02-15T17:50:06;7.22;;;3.45;;
45762;SDS011;37512;52.408;13.356;2024-02-15T17:54:12;7.88;;;3.95;;
45762;SDS011;37512;52.408;13.356;2024-02-15T17:58:15;4.43;;;3.10;;
45762;SDS011;37512;52.408;13.356;2024-02-15T18:02:17;3.97;;;2.90;;
45762;SDS011;37512;52.408;13.356;2024-02-15T18:06:18;5.85;;;3.22;;
45762;SDS011;37512;52.408;13.356;2024-02-15T18:10:21;5.45;;;2.78;;
45762;SDS011;37512;52.408;13.356;2024-02-15T18:14:23;10.90;;;3.55;;
45762;SDS011;37512;52.408;13.356;2024-02-15T18:18:26;7.28;;;3.97;;
45762;SDS011;37512;52.408;13.356;2024-02-15T18:22:30;5.97;;;3.38;;
45762;SDS011;37512;52.408;13.356;2024-02-15T18:26:32;6.65;;;2.95;;
45762;SDS011;37512;52.408;13.356;2024-02-15T18:30:35;5.15;;;2.78;;
45762;SDS011;37512;52.408;13.356;2024-02-15T18:34:49;4.80;;;2.85;;
45762;SDS011;37512;52.408;13.356;2024-02-15T18:38:51;5.15;;;3.15;;
45762;SDS011;37512;52.408;13.356;2024-02-15T18:42:53;4.47;;;3.28;;
45762;SDS011;37512;52.408;13.356;2024-02-15T18:46:55;4.25;;;3.28;;
45762;SDS011;37512;52.408;13.356;2024-02-15T18:50:57;6.95;;;3.45;;
45762;SDS011;37512;52.408;13.356;2024-02-15T18:54:59;5.32;;;2.88;;
45762;SDS011;37512;52.408;13.356;2024-02-15T18:59:02;4.13;;;2.67;;
45762;SDS011;37512;52.408;13.356;2024-02-15T19:03:07;3.90;;;3.28;;
45762;SDS011;37512;52.408;13.356;2024-02-15T19:07:08;8.35;;;3.20;;
45762;SDS011;37512;52.408;13.356;2024-02-15T19:11:10;4.38;;;3.22;;
45762;SDS011;37512;52.408;13.356;2024-02-15T19:15:14;4.50;;;3.40;;
45762;SDS011;37512;52.408;13.356;2024-02-15T19:19:17;4.53;;;3.40;;
45762;SDS011;37512;52.408;13.356;2024-02-15T19:23:20;5.25;;;3.40;;
45762;SDS011;37512;52.408;13.356;2024-02-15T19:27:22;3.80;;;3.30;;
45762;SDS011;37512;52.408;13.356;2024-02-15T19:31:25;9.00;;;3.20;;
45762;SDS011;37512;52.408;13.356;2024-02-15T19:35:29;5.32;;;3.25;;
45762;SDS011;37512;52.408;13.356;2024-02-15T19:39:37;6.90;;;3.58;;
45762;SDS011;37512;52.408;13.356;2024-02-15T19:43:41;4.22;;;3.47;;
45762;SDS011;37512;52.408;13.356;2024-02-15T19:47:44;4.30;;;3.55;;
45762;SDS011;37512;52.408;13.356;2024-02-15T19:51:49;5.53;;;4.35;;
45762;SDS011;37512;52.408;13.356;2024-02-15T19:55:53;7.07;;;3.60;;
45762;SDS011;37512;52.408;13.356;2024-02-15T19:59:54;6.13;;;3.63;;
45762;SDS011;37512;52.408;13.356;2024-02-15T20:03:58;5.40;;;3.72;;
45762;SDS011;37512;52.408;13.356;2024-02-15T20:08:01;5.40;;;3.85;;
45762;SDS011;37512;52.408;13.356;2024-02-15T20:12:03;5.45;;;3.60;;
45762;SDS011;37512;52.408;13.356;2024-02-15T20:16:05;4.57;;;3.63;;
45762;SDS011;37512;52.408;13.356;2024-02-15T20:20:07;6.68;;;4.18;;
45762;SDS011;37512;52.408;13.356;2024-02-15T20:24:10;6.10;;;3.63;;
45762;SDS011;37512;52.408;13.356;2024-02-15T20:28:19;4.60;;;3.50;;
45762;SDS011;37512;52.408;13.356;2024-02-15T20:32:23;4.43;;;3.40;;
45762;SDS011;37512;52.408;13.356;2024-02-15T20:36:25;4.57;;;3.90;;
45762;SDS011;37512;52.408;13.356;2024-02-15T20:40:28;4.40;;;3.58;;
45762;SDS011;37512;52.408;13.356;2024-02-15T20:44:30;5.82;;;3.63;;
45762;SDS011;37512;52.408;13.356;2024-02-15T20:48:31;5.80;;;3.58;;
45762;SDS011;37512;52.408;13.356;2024-02-15T20:52:33;4.60;;;3.50;;
45762;SDS011;37512;52.408;13.356;2024-02-15T20:56:35;4.72;;;3.63;;
45762;SDS011;37512;52.408;13.356;2024-02-15T21:00:38;5.47;;;3.45;;
45762;SDS011;37512;52.408;13.356;2024-02-15T21:04:40;4.07;;;3.40;;
45762;SDS011;37512;52.408;13.356;2024-02-15T21:08:42;6.55;;;3.55;;
45762;SDS011;37512;52.408;13.356;2024-02-15T21:12:45;4.82;;;3.72;;
45762;SDS011;37512;52.408;13.356;2024-02-15T21:16:46;4.50;;;3.92;;
45762;SDS011;37512;52.408;13.356;2024-02-15T21:20:48;6.85;;;4.20;;
45762;SDS011;37512;52.408;13.356;2024-02-15T21:24:50;5.43;;;3.60;;
45762;SDS011;37512;52.408;13.356;2024-02-15T21:28:52;7.10;;;3.80;;
45762;SDS011;37512;52.408;13.356;2024-02-15T21:32:54;6.78;;;3.90;;
45762;SDS011;37512;52.408;13.356;2024-02-15T21:36:56;6.43;;;4.00;;
45762;SDS011;37512;52.408;13.356;2024-02-15T21:40:58;5.75;;;4.05;;
45762;SDS011;37512;52.408;13.356;2024-02-15T21:45:00;5.10;;;4.40;;
45762;SDS011;37512;52.408;13.356;2024-02-15T21:49:02;6.75;;;4.07;;
45762;SDS011;37512;52.408;13.356;2024-02-15T21:53:04;10.30;;;4.60;;
45762;SDS011;37512;52.408;13.356;2024-02-15T21:57:06;5.90;;;4.63;;
45762;SDS011;37512;52.408;13.356;2024-02-15T22:01:08;5.25;;;4.53;;
45762;SDS011;37512;52.408;13.356;2024-02-15T22:05:11;9.52;;;4.80;;
45762;SDS011;37512;52.408;13.356;2024-02-15T22:09:13;6.00;;;4.60;;
45762;SDS011;37512;52.408;13.356;2024-02-15T22:13:15;5.30;;;4.78;;
45762;SDS011;37512;52.408;13.356;2024-02-15T22:17:17;6.53;;;4.90;;
45762;SDS011;37512;52.408;13.356;2024-02-15T22:21:19;5.40;;;4.30;;
45762;SDS011;37512;52.408;13.356;2024-02-15T22:25:23;8.63;;;4.47;;
45762;SDS011;37512;52.408;13.356;2024-02-15T22:29:24;8.45;;;4.85;;
45762;SDS011;37512;52.408;13.356;2024-02-15T22:33:26;5.55;;;4.47;;
45762;SDS011;37512;52.408;13.356;2024-02-15T22:37:28;7.97;;;5.13;;
45762;SDS011;37512;52.408;13.356;2024-02-15T22:41:30;6.78;;;4.80;;
45762;SDS011;37512;52.408;13.356;2024-02-15T22:45:32;6.85;;;5.32;;
45762;SDS011;37512;52.408;13.356;2024-02-15T22:49:34;7.00;;;5.18;;
45762;SDS011;37512;52.408;13.356;2024-02-15T22:53:43;9.63;;;5.53;;
45762;SDS011;37512;52.408;13.356;2024-02-15T22:57:46;7.07;;;4.93;;
45762;SDS011;37512;52.408;13.356;2024-02-15T23:01:48;7.45;;;5.15;;
45762;SDS011;37512;52.408;13.356;2024-02-15T23:05:51;6.38;;;5.03;;
45762;SDS011;37512;52.408;13.356;2024-02-15T23:09:54;7.95;;;4.72;;
45762;SDS011;37512;52.408;13.356;2024-02-15T23:13:57;7.68;;;5.30;;
45762;SDS011;37512;52.408;13.356;2024-02-15T23:17:59;7.85;;;5.57;;
45762;SDS011;37512;52.408;13.356;2024-02-15T23:22:01;8.13;;;5.63;;
45762;SDS011;37512;52.408;13.356;2024-02-15T23:26:02;9.45;;;6.40;;
45762;SDS011;37512;52.408;13.356;2024-02-15T23:30:05;8.65;;;6.05;;
45762;SDS011;37512;52.408;13.356;2024-02-15T23:34:10;9.52;;;6.35;;
45762;SDS011;37512;52.408;13.356;2024-02-15T23:38:12;10.60;;;7.25;;
45762;SDS011;37512;52.408;13.356;2024-02-15T23:42:33;9.90;;;7.70;;
45762;SDS011;37512;52.408;13.356;2024-02-15T23:46:35;9.98;;;7.22;;
45762;SDS011;37512;52.408;13.356;2024-02-15T23:50:37;11.75;;;7.75;;
45762;SDS011;37512;52.408;13.356;2024-02-15T23:54:39;12.10;;;7.45;;
45762;SDS011;37512;52.408;13.356;2024-02-15T23:58:41;10.63;;;7.47;;
